sensor_id;sensor_type;location;lat;lon;timestamp;P1;durP1;ratioP1;P2;durP2;ratioP2
22883;SDS011;13386;24.786;110.488;2023-03-14T00:00:59;38.42;;;8.73;;
22883;SDS011;13386;24.786;110.488;2023-03-14T00:03:29;40.85;;;8.95;;
22883;SDS011;13386;24.786;110.488;2023-03-14T00:06:01;49.80;;;9.35;;
22883;SDS011;13386;24.786;110.488;2023-03-14T00:08:32;44.85;;;9.43;;
22883;SDS011;13386;24.786;110.488;2023-03-14T00:11:06;39.17;;;9.77;;
22883;SDS011;13386;24.786;110.488;2023-03-14T00:13:38;36.05;;;9.57;;
22883;SDS011;13386;24.786;110.488;2023-03-14T00:16:09;38.97;;;9.32;;
22883;SDS011;13386;24.786;110.488;2023-03-14T00:18:39;40.20;;;9.63;;
22883;SDS011;13386;24.786;110.488;2023-03-14T00:21:10;42.95;;;10.07;;
22883;SDS011;13386;24.786;110.488;2023-03-14T00:23:40;40.55;;;8.93;;
22883;SDS011;13386;24.786;110.488;2023-03-14T00:26:11;43.67;;;9.30;;
22883;SDS011;13386;24.786;110.488;2023-03-14T00:28:43;46.03;;;9.73;;
22883;SDS011;13386;24.786;110.488;2023-03-14T00:31:17;42.08;;;9.35;;
22883;SDS011;13386;24.786;110.488;2023-03-14T00:33:50;37.55;;;9.77;;
22883;SDS011;13386;24.786;110.488;2023-03-14T00:36:21;40.47;;;9.88;;
22883;SDS011;13386;24.786;110.488;2023-03-14T00:38:51;42.78;;;10.63;;
22883;SDS011;13386;24.786;110.488;2023-03-14T00:41:22;43.45;;;9.20;;
22883;SDS011;13386;24.786;110.488;2023-03-14T00:43:54;40.10;;;9.43;;
22883;SDS011;13386;24.786;110.488;2023-03-14T00:46:24;41.15;;;9.57;;
22883;SDS011;13386;24.786;110.488;2023-03-14T00:48:56;40.13;;;9.93;;
22883;SDS011;13386;24.786;110.488;2023-03-14T00:51:26;37.00;;;9.65;;
22883;SDS011;13386;24.786;110.488;2023-03-14T00:53:56;37.28;;;9.15;;
22883;SDS011;13386;24.786;110.488;2023-03-14T00:56:27;44.42;;;9.65;;
22883;SDS011;13386;24.786;110.488;2023-03-14T00:58:59;44.58;;;9.63;;
22883;SDS011;13386;24.786;110.488;2023-03-14T01:01:29;39.25;;;9.30;;
22883;SDS011;13386;24.786;110.488;2023-03-14T01:04:03;47.28;;;9.05;;
22883;SDS011;13386;24.786;110.488;2023-03-14T01:06:33;46.38;;;9.80;;
22883;SDS011;13386;24.786;110.488;2023-03-14T01:09:04;44.33;;;9.65;;
22883;SDS011;13386;24.786;110.488;2023-03-14T01:11:34;48.90;;;10.43;;
22883;SDS011;13386;24.786;110.488;2023-03-14T01:14:06;46.10;;;10.88;;
22883;SDS011;13386;24.786;110.488;2023-03-14T01:16:36;42.95;;;11.13;;
22883;SDS011;13386;24.786;110.488;2023-03-14T01:19:06;57.65;;;11.85;;
22883;SDS011;13386;24.786;110.488;2023-03-14T01:21:36;47.88;;;11.93;;
22883;SDS011;13386;24.786;110.488;2023-03-14T01:24:07;58.10;;;11.63;;
22883;SDS011;13386;24.786;110.488;2023-03-14T01:26:38;47.40;;;10.90;;
22883;SDS011;13386;24.786;110.488;2023-03-14T01:29:11;43.88;;;11.00;;
22883;SDS011;13386;24.786;110.488;2023-03-14T01:31:43;49.15;;;10.77;;
22883;SDS011;13386;24.786;110.488;2023-03-14T01:34:13;45.00;;;10.23;;
22883;SDS011;13386;24.786;110.488;2023-03-14T01:36:43;40.78;;;10.00;;
22883;SDS011;13386;24.786;110.488;2023-03-14T01:39:13;47.85;;;9.88;;
22883;SDS011;13386;24.786;110.488;2023-03-14T01:41:43;41.13;;;10.18;;
22883;SDS011;13386;24.786;110.488;2023-03-14T01:44:15;47.53;;;11.75;;
22883;SDS011;13386;24.786;110.488;2023-03-14T01:46:46;43.40;;;9.40;;
22883;SDS011;13386;24.786;110.488;2023-03-14T01:49:21;39.42;;;9.27;;
22883;SDS011;13386;24.786;110.488;2023-03-14T01:52:06;38.75;;;8.82;;
22883;SDS011;13386;24.786;110.488;2023-03-14T01:54:37;44.30;;;8.30;;
22883;SDS011;13386;24.786;110.488;2023-03-14T01:57:10;48.58;;;9.52;;
22883;SDS011;13386;24.786;110.488;2023-03-14T01:59:44;47.65;;;9.07;;
22883;SDS011;13386;24.786;110.488;2023-03-14T02:02:19;36.80;;;8.35;;
22883;SDS011;13386;24.786;110.488;2023-03-14T02:04:49;38.58;;;8.15;;
22883;SDS011;13386;24.786;110.488;2023-03-14T02:07:24;46.35;;;8.65;;
22883;SDS011;13386;24.786;110.488;2023-03-14T02:10:06;39.13;;;8.73;;
22883;SDS011;13386;24.786;110.488;2023-03-14T02:12:36;41.92;;;8.38;;
22883;SDS011;13386;24.786;110.488;2023-03-14T02:15:31;33.33;;;8.00;;
22883;SDS011;13386;24.786;110.488;2023-03-14T02:18:14;37.88;;;7.80;;
22883;SDS011;13386;24.786;110.488;2023-03-14T02:21:08;31.27;;;6.75;;
22883;SDS011;13386;24.786;110.488;2023-03-14T02:23:43;39.42;;;8.38;;
22883;SDS011;13386;24.786;110.488;2023-03-14T02:26:19;39.90;;;7.65;;
22883;SDS011;13386;24.786;110.488;2023-03-14T02:28:52;32.50;;;7.97;;
22883;SDS011;13386;24.786;110.488;2023-03-14T02:31:23;41.05;;;8.23;;
22883;SDS011;13386;24.786;110.488;2023-03-14T02:33:53;44.90;;;8.45;;
22883;SDS011;13386;24.786;110.488;2023-03-14T02:36:24;39.03;;;8.77;;
22883;SDS011;13386;24.786;110.488;2023-03-14T02:38:55;39.60;;;8.38;;
22883;SDS011;13386;24.786;110.488;2023-03-14T02:41:29;36.03;;;8.25;;
22883;SDS011;13386;24.786;110.488;2023-03-14T02:44:04;44.78;;;8.10;;
22883;SDS011;13386;24.786;110.488;2023-03-14T02:46:35;40.70;;;7.57;;
22883;SDS011;13386;24.786;110.488;2023-03-14T02:49:06;36.95;;;7.80;;
22883;SDS011;13386;24.786;110.488;2023-03-14T02:51:38;44.17;;;8.10;;
22883;SDS011;13386;24.786;110.488;2023-03-14T02:54:12;34.95;;;8.05;;
22883;SDS011;13386;24.786;110.488;2023-03-14T02:56:42;40.55;;;8.30;;
22883;SDS011;13386;24.786;110.488;2023-03-14T02:59:15;35.45;;;8.43;;
22883;SDS011;13386;24.786;110.488;2023-03-14T03:01:50;42.72;;;7.28;;
22883;SDS011;13386;24.786;110.488;2023-03-14T03:04:20;41.40;;;7.75;;
22883;SDS011;13386;24.786;110.488;2023-03-14T03:06:50;34.88;;;7.47;;
22883;SDS011;13386;24.786;110.488;2023-03-14T03:09:20;36.55;;;7.90;;
22883;SDS011;13386;24.786;110.488;2023-03-14T03:11:52;32.50;;;7.45;;
22883;SDS011;13386;24.786;110.488;2023-03-14T03:14:27;30.33;;;7.78;;
22883;SDS011;13386;24.786;110.488;2023-03-14T03:17:00;43.55;;;7.53;;
22883;SDS011;13386;24.786;110.488;2023-03-14T03:19:30;35.28;;;7.90;;
22883;SDS011;13386;24.786;110.488;2023-03-14T03:22:00;31.08;;;7.20;;
22883;SDS011;13386;24.786;110.488;2023-03-14T03:24:31;36.53;;;7.13;;
22883;SDS011;13386;24.786;110.488;2023-03-14T03:27:02;29.90;;;6.70;;
22883;SDS011;13386;24.786;110.488;2023-03-14T03:29:34;29.95;;;6.88;;
22883;SDS011;13386;24.786;110.488;2023-03-14T03:32:06;40.95;;;6.47;;
22883;SDS011;13386;24.786;110.488;2023-03-14T03:34:36;44.17;;;7.32;;
22883;SDS011;13386;24.786;110.488;2023-03-14T03:37:07;33.35;;;7.68;;
22883;SDS011;13386;24.786;110.488;2023-03-14T03:39:41;35.08;;;6.72;;
22883;SDS011;13386;24.786;110.488;2023-03-14T03:42:12;44.50;;;6.93;;
22883;SDS011;13386;24.786;110.488;2023-03-14T03:44:45;28.90;;;7.07;;
22883;SDS011;13386;24.786;110.488;2023-03-14T03:47:16;41.35;;;6.80;;
22883;SDS011;13386;24.786;110.488;2023-03-14T03:49:46;34.58;;;6.53;;
22883;SDS011;13386;24.786;110.488;2023-03-14T03:52:16;40.95;;;7.07;;
22883;SDS011;13386;24.786;110.488;2023-03-14T03:54:47;32.28;;;6.93;;
22883;SDS011;13386;24.786;110.488;2023-03-14T03:57:17;31.23;;;6.63;;
22883;SDS011;13386;24.786;110.488;2023-03-14T03:59:49;31.00;;;7.13;;
22883;SDS011;13386;24.786;110.488;2023-03-14T04:02:19;39.78;;;6.90;;
22883;SDS011;13386;24.786;110.488;2023-03-14T04:04:52;42.78;;;7.38;;
22883;SDS011;13386;24.786;110.488;2023-03-14T04:07:22;27.88;;;6.38;;
22883;SDS011;13386;24.786;110.488;2023-03-14T04:09:52;32.53;;;6.90;;
22883;SDS011;13386;24.786;110.488;2023-03-14T04:12:33;38.78;;;7.65;;
22883;SDS011;13386;24.786;110.488;2023-03-14T04:15:12;46.75;;;7.45;;
22883;SDS011;13386;24.786;110.488;2023-03-14T04:17:48;29.48;;;6.88;;
22883;SDS011;13386;24.786;110.488;2023-03-14T04:20:18;36.85;;;6.93;;
22883;SDS011;13386;24.786;110.488;2023-03-14T04:22:53;33.75;;;6.97;;
22883;SDS011;13386;24.786;110.488;2023-03-14T04:25:26;34.25;;;6.80;;
22883;SDS011;13386;24.786;110.488;2023-03-14T04:28:05;43.63;;;6.80;;
22883;SDS011;13386;24.786;110.488;2023-03-14T04:30:37;36.08;;;6.70;;
22883;SDS011;13386;24.786;110.488;2023-03-14T04:33:13;37.65;;;7.15;;
22883;SDS011;13386;24.786;110.488;2023-03-14T04:35:53;41.80;;;7.18;;
22883;SDS011;13386;24.786;110.488;2023-03-14T04:38:24;42.30;;;7.13;;
22883;SDS011;13386;24.786;110.488;2023-03-14T04:40:55;30.02;;;6.65;;
22883;SDS011;13386;24.786;110.488;2023-03-14T04:43:30;31.63;;;6.55;;
22883;SDS011;13386;24.786;110.488;2023-03-14T04:46:07;38.85;;;6.28;;
22883;SDS011;13386;24.786;110.488;2023-03-14T04:48:38;27.90;;;5.25;;
22883;SDS011;13386;24.786;110.488;2023-03-14T04:51:09;39.03;;;6.68;;
22883;SDS011;13386;24.786;110.488;2023-03-14T04:53:39;27.13;;;6.38;;
22883;SDS011;13386;24.786;110.488;2023-03-14T04:56:17;27.70;;;6.15;;
22883;SDS011;13386;24.786;110.488;2023-03-14T04:58:48;36.35;;;6.88;;
22883;SDS011;13386;24.786;110.488;2023-03-14T05:01:20;42.00;;;7.03;;
22883;SDS011;13386;24.786;110.488;2023-03-14T05:04:09;35.35;;;7.00;;
22883;SDS011;13386;24.786;110.488;2023-03-14T05:07:08;36.58;;;7.13;;
22883;SDS011;13386;24.786;110.488;2023-03-14T05:09:49;24.05;;;6.68;;
22883;SDS011;13386;24.786;110.488;2023-03-14T05:12:39;36.65;;;6.50;;
22883;SDS011;13386;24.786;110.488;2023-03-14T05:15:34;35.67;;;6.70;;
22883;SDS011;13386;24.786;110.488;2023-03-14T05:18:16;25.58;;;6.18;;
22883;SDS011;13386;24.786;110.488;2023-03-14T05:21:12;29.00;;;5.57;;
22883;SDS011;13386;24.786;110.488;2023-03-14T05:24:01;39.63;;;6.28;;
22883;SDS011;13386;24.786;110.488;2023-03-14T05:26:43;27.25;;;5.13;;
22883;SDS011;13386;24.786;110.488;2023-03-14T05:29:36;21.02;;;5.20;;
22883;SDS011;13386;24.786;110.488;2023-03-14T05:32:35;39.97;;;6.80;;
22883;SDS011;13386;24.786;110.488;2023-03-14T05:35:12;40.75;;;6.68;;
22883;SDS011;13386;24.786;110.488;2023-03-14T05:38:21;41.90;;;6.05;;
22883;SDS011;13386;24.786;110.488;2023-03-14T05:41:09;31.75;;;5.85;;
22883;SDS011;13386;24.786;110.488;2023-03-14T05:43:52;35.10;;;6.07;;
22883;SDS011;13386;24.786;110.488;2023-03-14T05:46:51;28.50;;;4.78;;
22883;SDS011;13386;24.786;110.488;2023-03-14T05:49:39;27.02;;;6.03;;
22883;SDS011;13386;24.786;110.488;2023-03-14T05:52:34;39.92;;;5.82;;
22883;SDS011;13386;24.786;110.488;2023-03-14T05:55:37;32.78;;;5.78;;
22883;SDS011;13386;24.786;110.488;2023-03-14T05:58:26;27.45;;;5.50;;
22883;SDS011;13386;24.786;110.488;2023-03-14T06:01:24;37.33;;;6.32;;
22883;SDS011;13386;24.786;110.488;2023-03-14T06:04:10;33.17;;;5.55;;
22883;SDS011;13386;24.786;110.488;2023-03-14T06:06:55;34.10;;;5.50;;
22883;SDS011;13386;24.786;110.488;2023-03-14T06:09:30;29.08;;;5.88;;
22883;SDS011;13386;24.786;110.488;2023-03-14T06:12:03;32.55;;;6.22;;
22883;SDS011;13386;24.786;110.488;2023-03-14T06:14:39;33.63;;;5.72;;
22883;SDS011;13386;24.786;110.488;2023-03-14T06:17:10;40.90;;;5.68;;
22883;SDS011;13386;24.786;110.488;2023-03-14T06:19:52;22.77;;;5.55;;
22883;SDS011;13386;24.786;110.488;2023-03-14T06:22:23;31.13;;;5.60;;
22883;SDS011;13386;24.786;110.488;2023-03-14T06:24:56;33.50;;;6.30;;
22883;SDS011;13386;24.786;110.488;2023-03-14T06:27:26;30.85;;;6.43;;
22883;SDS011;13386;24.786;110.488;2023-03-14T06:29:59;45.22;;;7.03;;
22883;SDS011;13386;24.786;110.488;2023-03-14T06:32:32;26.73;;;6.13;;
22883;SDS011;13386;24.786;110.488;2023-03-14T06:35:13;35.38;;;6.13;;
22883;SDS011;13386;24.786;110.488;2023-03-14T06:37:46;30.17;;;6.47;;
22883;SDS011;13386;24.786;110.488;2023-03-14T06:40:20;36.75;;;6.53;;
22883;SDS011;13386;24.786;110.488;2023-03-14T06:43:05;33.30;;;7.20;;
22883;SDS011;13386;24.786;110.488;2023-03-14T06:45:37;35.35;;;6.63;;
22883;SDS011;13386;24.786;110.488;2023-03-14T06:48:07;37.05;;;6.97;;
22883;SDS011;13386;24.786;110.488;2023-03-14T06:50:51;29.85;;;7.03;;
22883;SDS011;13386;24.786;110.488;2023-03-14T06:53:22;35.95;;;6.78;;
22883;SDS011;13386;24.786;110.488;2023-03-14T06:55:54;31.50;;;6.25;;
22883;SDS011;13386;24.786;110.488;2023-03-14T06:58:27;30.70;;;6.25;;
22883;SDS011;13386;24.786;110.488;2023-03-14T07:00:57;37.25;;;7.22;;
22883;SDS011;13386;24.786;110.488;2023-03-14T07:03:32;44.28;;;8.27;;
22883;SDS011;13386;24.786;110.488;2023-03-14T07:06:05;39.70;;;7.68;;
22883;SDS011;13386;24.786;110.488;2023-03-14T07:08:35;33.72;;;6.45;;
22883;SDS011;13386;24.786;110.488;2023-03-14T07:11:09;37.08;;;7.15;;
22883;SDS011;13386;24.786;110.488;2023-03-14T07:13:39;32.55;;;6.45;;
22883;SDS011;13386;24.786;110.488;2023-03-14T07:16:10;30.17;;;6.93;;
22883;SDS011;13386;24.786;110.488;2023-03-14T07:18:41;33.13;;;6.88;;
22883;SDS011;13386;24.786;110.488;2023-03-14T07:21:12;27.83;;;6.65;;
22883;SDS011;13386;24.786;110.488;2023-03-14T07:23:46;34.80;;;6.70;;
22883;SDS011;13386;24.786;110.488;2023-03-14T07:26:19;32.17;;;6.28;;
22883;SDS011;13386;24.786;110.488;2023-03-14T07:28:52;34.78;;;6.60;;
22883;SDS011;13386;24.786;110.488;2023-03-14T07:31:24;36.72;;;6.35;;
22883;SDS011;13386;24.786;110.488;2023-03-14T07:33:54;27.13;;;6.22;;
22883;SDS011;13386;24.786;110.488;2023-03-14T07:36:29;38.00;;;6.40;;
22883;SDS011;13386;24.786;110.488;2023-03-14T07:38:59;30.42;;;5.65;;
22883;SDS011;13386;24.786;110.488;2023-03-14T07:41:37;34.45;;;6.30;;
22883;SDS011;13386;24.786;110.488;2023-03-14T07:44:32;34.30;;;6.20;;
22883;SDS011;13386;24.786;110.488;2023-03-14T07:47:02;28.40;;;6.47;;
22883;SDS011;13386;24.786;110.488;2023-03-14T07:49:33;29.85;;;6.70;;
22883;SDS011;13386;24.786;110.488;2023-03-14T07:52:04;28.23;;;5.68;;
22883;SDS011;13386;24.786;110.488;2023-03-14T07:54:34;31.25;;;6.70;;
22883;SDS011;13386;24.786;110.488;2023-03-14T07:57:06;34.70;;;6.88;;
22883;SDS011;13386;24.786;110.488;2023-03-14T07:59:36;37.60;;;6.15;;
22883;SDS011;13386;24.786;110.488;2023-03-14T08:02:08;30.77;;;6.13;;
22883;SDS011;13386;24.786;110.488;2023-03-14T08:04:39;33.55;;;6.75;;
22883;SDS011;13386;24.786;110.488;2023-03-14T08:07:10;32.92;;;6.13;;
22883;SDS011;13386;24.786;110.488;2023-03-14T08:09:40;28.52;;;6.28;;
22883;SDS011;13386;24.786;110.488;2023-03-14T08:12:12;31.02;;;6.07;;
22883;SDS011;13386;24.786;110.488;2023-03-14T08:14:42;32.10;;;6.53;;
22883;SDS011;13386;24.786;110.488;2023-03-14T08:17:13;30.98;;;5.97;;
22883;SDS011;13386;24.786;110.488;2023-03-14T08:19:43;33.70;;;6.43;;
22883;SDS011;13386;24.786;110.488;2023-03-14T08:22:15;31.33;;;6.13;;
22883;SDS011;13386;24.786;110.488;2023-03-14T08:24:45;25.75;;;5.72;;
22883;SDS011;13386;24.786;110.488;2023-03-14T08:27:20;29.77;;;7.10;;
22883;SDS011;13386;24.786;110.488;2023-03-14T08:29:51;32.80;;;6.63;;
22883;SDS011;13386;24.786;110.488;2023-03-14T08:32:22;35.47;;;6.47;;
22883;SDS011;13386;24.786;110.488;2023-03-14T08:34:52;37.92;;;6.93;;
22883;SDS011;13386;24.786;110.488;2023-03-14T08:37:22;31.83;;;6.70;;
22883;SDS011;13386;24.786;110.488;2023-03-14T08:39:53;34.78;;;6.22;;
22883;SDS011;13386;24.786;110.488;2023-03-14T08:42:26;27.20;;;5.90;;
22883;SDS011;13386;24.786;110.488;2023-03-14T08:44:56;37.78;;;6.57;;
22883;SDS011;13386;24.786;110.488;2023-03-14T08:47:27;34.13;;;7.38;;
22883;SDS011;13386;24.786;110.488;2023-03-14T08:49:59;36.70;;;7.80;;
22883;SDS011;13386;24.786;110.488;2023-03-14T08:52:29;37.35;;;7.63;;
22883;SDS011;13386;24.786;110.488;2023-03-14T08:54:59;38.00;;;7.18;;
22883;SDS011;13386;24.786;110.488;2023-03-14T08:57:31;49.00;;;9.50;;
22883;SDS011;13386;24.786;110.488;2023-03-14T09:00:03;41.40;;;8.98;;
22883;SDS011;13386;24.786;110.488;2023-03-14T09:02:37;38.67;;;8.90;;
22883;SDS011;13386;24.786;110.488;2023-03-14T09:05:11;32.38;;;8.18;;
22883;SDS011;13386;24.786;110.488;2023-03-14T09:07:41;40.15;;;9.95;;
22883;SDS011;13386;24.786;110.488;2023-03-14T09:10:12;43.42;;;10.18;;
22883;SDS011;13386;24.786;110.488;2023-03-14T09:12:44;37.90;;;8.93;;
22883;SDS011;13386;24.786;110.488;2023-03-14T09:15:14;37.67;;;9.38;;
22883;SDS011;13386;24.786;110.488;2023-03-14T09:17:45;36.33;;;9.40;;
22883;SDS011;13386;24.786;110.488;2023-03-14T09:20:17;51.80;;;10.55;;
22883;SDS011;13386;24.786;110.488;2023-03-14T09:22:47;40.35;;;9.65;;
22883;SDS011;13386;24.786;110.488;2023-03-14T09:25:17;50.97;;;9.82;;
22883;SDS011;13386;24.786;110.488;2023-03-14T09:27:49;47.30;;;11.57;;
22883;SDS011;13386;24.786;110.488;2023-03-14T09:30:19;37.60;;;9.57;;
22883;SDS011;13386;24.786;110.488;2023-03-14T09:32:50;44.17;;;10.07;;
22883;SDS011;13386;24.786;110.488;2023-03-14T09:35:20;35.60;;;10.50;;
22883;SDS011;13386;24.786;110.488;2023-03-14T09:37:51;50.15;;;10.45;;
22883;SDS011;13386;24.786;110.488;2023-03-14T09:40:22;54.75;;;12.23;;
22883;SDS011;13386;24.786;110.488;2023-03-14T09:42:54;39.08;;;11.30;;
22883;SDS011;13386;24.786;110.488;2023-03-14T09:45:26;36.25;;;9.80;;
22883;SDS011;13386;24.786;110.488;2023-03-14T09:47:57;47.75;;;10.88;;
22883;SDS011;13386;24.786;110.488;2023-03-14T09:50:30;46.63;;;10.38;;
22883;SDS011;13386;24.786;110.488;2023-03-14T09:53:01;47.58;;;11.32;;
22883;SDS011;13386;24.786;110.488;2023-03-14T09:55:32;40.95;;;10.40;;
22883;SDS011;13386;24.786;110.488;2023-03-14T09:58:05;46.40;;;10.73;;
22883;SDS011;13386;24.786;110.488;2023-03-14T10:00:39;39.72;;;11.43;;
22883;SDS011;13386;24.786;110.488;2023-03-14T10:03:20;40.53;;;10.07;;
22883;SDS011;13386;24.786;110.488;2023-03-14T10:05:50;50.38;;;10.82;;
22883;SDS011;13386;24.786;110.488;2023-03-14T10:08:21;39.72;;;10.77;;
22883;SDS011;13386;24.786;110.488;2023-03-14T10:10:51;39.70;;;10.80;;
22883;SDS011;13386;24.786;110.488;2023-03-14T10:13:24;44.25;;;10.95;;
22883;SDS011;13386;24.786;110.488;2023-03-14T10:15:59;37.60;;;10.15;;
22883;SDS011;13386;24.786;110.488;2023-03-14T10:18:30;53.53;;;11.55;;
22883;SDS011;13386;24.786;110.488;2023-03-14T10:21:04;42.92;;;10.65;;
22883;SDS011;13386;24.786;110.488;2023-03-14T10:23:36;53.30;;;11.13;;
22883;SDS011;13386;24.786;110.488;2023-03-14T10:26:08;43.55;;;11.63;;
22883;SDS011;13386;24.786;110.488;2023-03-14T10:28:42;48.03;;;11.20;;
22883;SDS011;13386;24.786;110.488;2023-03-14T10:31:13;41.03;;;10.02;;
22883;SDS011;13386;24.786;110.488;2023-03-14T10:33:43;52.78;;;11.68;;
22883;SDS011;13386;24.786;110.488;2023-03-14T10:36:26;54.28;;;12.00;;
22883;SDS011;13386;24.786;110.488;2023-03-14T10:38:57;49.92;;;12.35;;
22883;SDS011;13386;24.786;110.488;2023-03-14T10:41:37;65.30;;;13.95;;
22883;SDS011;13386;24.786;110.488;2023-03-14T10:44:09;47.80;;;14.43;;
22883;SDS011;13386;24.786;110.488;2023-03-14T10:46:40;52.60;;;13.13;;
22883;SDS011;13386;24.786;110.488;2023-03-14T10:49:27;52.00;;;13.15;;
22883;SDS011;13386;24.786;110.488;2023-03-14T10:52:01;66.13;;;14.55;;
22883;SDS011;13386;24.786;110.488;2023-03-14T10:54:31;55.60;;;15.43;;
22883;SDS011;13386;24.786;110.488;2023-03-14T10:57:01;62.83;;;14.15;;
22883;SDS011;13386;24.786;110.488;2023-03-14T10:59:38;77.57;;;15.13;;
22883;SDS011;13386;24.786;110.488;2023-03-14T11:02:13;57.78;;;13.65;;
22883;SDS011;13386;24.786;110.488;2023-03-14T11:04:54;67.43;;;15.73;;
22883;SDS011;13386;24.786;110.488;2023-03-14T11:07:27;61.85;;;14.60;;
22883;SDS011;13386;24.786;110.488;2023-03-14T11:09:58;62.53;;;14.18;;
22883;SDS011;13386;24.786;110.488;2023-03-14T11:12:34;55.70;;;14.68;;
22883;SDS011;13386;24.786;110.488;2023-03-14T11:15:11;75.53;;;15.93;;
22883;SDS011;13386;24.786;110.488;2023-03-14T11:17:46;66.53;;;15.32;;
22883;SDS011;13386;24.786;110.488;2023-03-14T11:20:26;58.53;;;13.45;;
22883;SDS011;13386;24.786;110.488;2023-03-14T11:23:01;55.40;;;13.88;;
22883;SDS011;13386;24.786;110.488;2023-03-14T11:25:35;49.60;;;13.82;;
22883;SDS011;13386;24.786;110.488;2023-03-14T11:28:09;53.83;;;14.02;;
22883;SDS011;13386;24.786;110.488;2023-03-14T11:30:42;65.60;;;14.70;;
22883;SDS011;13386;24.786;110.488;2023-03-14T11:33:17;73.60;;;15.38;;
22883;SDS011;13386;24.786;110.488;2023-03-14T11:35:49;68.90;;;14.00;;
22883;SDS011;13386;24.786;110.488;2023-03-14T11:38:26;68.20;;;15.13;;
22883;SDS011;13386;24.786;110.488;2023-03-14T11:41:02;61.55;;;14.43;;
22883;SDS011;13386;24.786;110.488;2023-03-14T11:43:32;58.28;;;13.82;;
22883;SDS011;13386;24.786;110.488;2023-03-14T11:46:11;64.95;;;14.00;;
22883;SDS011;13386;24.786;110.488;2023-03-14T11:48:45;56.70;;;13.48;;
22883;SDS011;13386;24.786;110.488;2023-03-14T11:53:52;65.25;;;13.57;;
22883;SDS011;13386;24.786;110.488;2023-03-14T11:56:25;63.53;;;13.07;;
22883;SDS011;13386;24.786;110.488;2023-03-14T11:59:00;65.20;;;13.98;;
22883;SDS011;13386;24.786;110.488;2023-03-14T12:01:40;65.82;;;14.93;;
22883;SDS011;13386;24.786;110.488;2023-03-14T12:04:11;65.05;;;13.60;;
22883;SDS011;13386;24.786;110.488;2023-03-14T12:06:45;63.20;;;13.40;;
22883;SDS011;13386;24.786;110.488;2023-03-14T12:09:17;65.88;;;13.77;;
22883;SDS011;13386;24.786;110.488;2023-03-14T12:11:50;61.72;;;13.25;;
22883;SDS011;13386;24.786;110.488;2023-03-14T12:14:23;60.88;;;12.27;;
22883;SDS011;13386;24.786;110.488;2023-03-14T12:16:56;62.30;;;14.10;;
22883;SDS011;13386;24.786;110.488;2023-03-14T12:19:31;62.17;;;13.73;;
22883;SDS011;13386;24.786;110.488;2023-03-14T12:24:48;56.92;;;13.93;;
22883;SDS011;13386;24.786;110.488;2023-03-14T12:30:27;65.40;;;13.93;;
22883;SDS011;13386;24.786;110.488;2023-03-14T12:39:05;49.95;;;12.50;;
22883;SDS011;13386;24.786;110.488;2023-03-14T12:41:41;60.72;;;12.77;;
22883;SDS011;13386;24.786;110.488;2023-03-14T12:50:14;58.85;;;13.48;;
22883;SDS011;13386;24.786;110.488;2023-03-14T12:52:51;59.58;;;13.60;;
22883;SDS011;13386;24.786;110.488;2023-03-14T12:55:32;51.75;;;13.13;;
22883;SDS011;13386;24.786;110.488;2023-03-14T12:58:04;46.55;;;12.93;;
22883;SDS011;13386;24.786;110.488;2023-03-14T13:00:38;58.95;;;12.73;;
22883;SDS011;13386;24.786;110.488;2023-03-14T13:03:17;50.83;;;12.57;;
22883;SDS011;13386;24.786;110.488;2023-03-14T13:05:55;61.30;;;12.52;;
22883;SDS011;13386;24.786;110.488;2023-03-14T13:08:35;61.80;;;12.75;;
22883;SDS011;13386;24.786;110.488;2023-03-14T13:11:10;54.78;;;12.73;;
22883;SDS011;13386;24.786;110.488;2023-03-14T13:13:42;54.03;;;12.80;;
22883;SDS011;13386;24.786;110.488;2023-03-14T13:16:16;56.60;;;12.68;;
22883;SDS011;13386;24.786;110.488;2023-03-14T13:18:47;50.90;;;13.07;;
22883;SDS011;13386;24.786;110.488;2023-03-14T13:21:21;55.10;;;12.35;;
22883;SDS011;13386;24.786;110.488;2023-03-14T13:23:56;60.85;;;13.30;;
22883;SDS011;13386;24.786;110.488;2023-03-14T13:26:34;51.70;;;13.55;;
22883;SDS011;13386;24.786;110.488;2023-03-14T13:29:09;63.08;;;13.23;;
22883;SDS011;13386;24.786;110.488;2023-03-14T13:31:43;53.08;;;13.60;;
22883;SDS011;13386;24.786;110.488;2023-03-14T13:34:15;63.28;;;13.48;;
22883;SDS011;13386;24.786;110.488;2023-03-14T13:36:45;48.97;;;12.70;;
22883;SDS011;13386;24.786;110.488;2023-03-14T13:39:21;52.05;;;12.43;;
22883;SDS011;13386;24.786;110.488;2023-03-14T13:41:57;54.80;;;13.65;;
22883;SDS011;13386;24.786;110.488;2023-03-14T13:44:35;51.38;;;13.05;;
22883;SDS011;13386;24.786;110.488;2023-03-14T13:47:09;46.25;;;11.82;;
22883;SDS011;13386;24.786;110.488;2023-03-14T13:49:45;59.95;;;12.90;;
22883;SDS011;13386;24.786;110.488;2023-03-14T13:52:23;50.72;;;13.30;;
22883;SDS011;13386;24.786;110.488;2023-03-14T13:54:55;55.08;;;12.30;;
22883;SDS011;13386;24.786;110.488;2023-03-14T13:57:28;50.38;;;12.55;;
22883;SDS011;13386;24.786;110.488;2023-03-14T14:00:01;63.55;;;13.75;;
22883;SDS011;13386;24.786;110.488;2023-03-14T14:02:36;53.17;;;12.95;;
22883;SDS011;13386;24.786;110.488;2023-03-14T14:05:12;53.65;;;12.35;;
22883;SDS011;13386;24.786;110.488;2023-03-14T14:07:46;52.30;;;12.23;;
22883;SDS011;13386;24.786;110.488;2023-03-14T14:10:17;57.05;;;12.95;;
22883;SDS011;13386;24.786;110.488;2023-03-14T14:12:55;59.35;;;13.15;;
22883;SDS011;13386;24.786;110.488;2023-03-14T14:15:27;43.65;;;12.15;;
22883;SDS011;13386;24.786;110.488;2023-03-14T14:18:01;51.72;;;12.93;;
22883;SDS011;13386;24.786;110.488;2023-03-14T14:20:47;48.40;;;11.63;;
22883;SDS011;13386;24.786;110.488;2023-03-14T14:23:19;55.92;;;12.75;;
22883;SDS011;13386;24.786;110.488;2023-03-14T14:25:54;57.20;;;13.40;;
22883;SDS011;13386;24.786;110.488;2023-03-14T14:28:31;43.20;;;11.98;;
22883;SDS011;13386;24.786;110.488;2023-03-14T14:31:17;42.75;;;12.63;;
22883;SDS011;13386;24.786;110.488;2023-03-14T14:33:55;48.85;;;11.82;;
22883;SDS011;13386;24.786;110.488;2023-03-14T14:36:28;59.53;;;13.75;;
22883;SDS011;13386;24.786;110.488;2023-03-14T14:38:59;52.05;;;12.60;;
22883;SDS011;13386;24.786;110.488;2023-03-14T14:41:33;49.45;;;12.00;;
22883;SDS011;13386;24.786;110.488;2023-03-14T14:44:10;50.08;;;12.48;;
22883;SDS011;13386;24.786;110.488;2023-03-14T14:46:41;47.40;;;12.30;;
22883;SDS011;13386;24.786;110.488;2023-03-14T14:49:13;49.90;;;12.18;;
22883;SDS011;13386;24.786;110.488;2023-03-14T14:51:50;53.35;;;13.38;;
22883;SDS011;13386;24.786;110.488;2023-03-14T14:54:32;54.50;;;13.98;;
22883;SDS011;13386;24.786;110.488;2023-03-14T14:57:05;55.28;;;12.88;;
22883;SDS011;13386;24.786;110.488;2023-03-14T14:59:41;58.47;;;12.95;;
22883;SDS011;13386;24.786;110.488;2023-03-14T15:02:24;48.78;;;13.20;;
22883;SDS011;13386;24.786;110.488;2023-03-14T15:04:58;44.15;;;12.82;;